Time;durP1;ratioP1;P1;durP2;ratioP2;P2;SDS_P1;SDS_P2;PMS_P1;PMS_P2;Temp;Humidity;BMP_temperature;BMP_pressure;BME280_temperature;BME280_humidity;BME280_pressure;Samples;Min_cycle;Max_cycle;Signal;HPM_P1;HPM_P2
2024/01/23 15:33:51;;;;;;;3.40;1.75;;;6.20;99.90;;;;;;7572820;19;20382;-75
2024/01/23 15:36:24;;;;;;;10.57;1.70;;;6.20;99.90;;;;;;7534770;19;20963;-75
2024/01/23 15:38:57;;;;;;;5.93;1.55;;;6.20;99.90;;;;;;7553611;19;20461;-77
2024/01/23 15:41:41;;;;;;;9.63;2.47;;;6.20;99.90;;;;;;6913507;19;10001069;-77
2024/01/23 15:44:13;;;;;;;10.05;2.30;;;6.30;99.90;;;;;;7586975;19;20672;-76
2024/01/23 15:46:46;;;;;;;8.35;2.92;;;6.30;99.90;;;;;;7567212;19;20362;-77
2024/01/23 15:49:20;;;;;;;;;;;6.30;99.90;;;;;;7603559;19;21416;-76
2024/01/23 15:51:53;;;;;;;9.98;3.05;;;6.40;99.90;;;;;;7591977;19;20546;-75
2024/01/23 15:54:25;;;;;;;12.20;3.17;;;6.30;99.90;;;;;;7607451;19;20269;-76
2024/01/23 15:56:58;;;;;;;11.20;3.80;;;6.30;99.90;;;;;;7624280;19;20054;-76
2024/01/23 15:59:30;;;;;;;13.27;2.75;;;6.30;99.90;;;;;;7613802;19;20022;-76
2024/01/23 16:02:04;;;;;;;9.38;2.78;;;6.40;99.90;;;;;;7621134;19;20014;-78
2024/01/23 16:04:36;;;;;;;12.57;3.15;;;6.40;99.90;;;;;;7611763;19;20169;-76
2024/01/23 16:07:08;;;;;;;12.02;2.88;;;6.50;99.90;;;;;;7603148;19;20015;-75
2024/01/23 16:09:47;;;;;;;13.25;3.20;;;6.40;99.90;;;;;;7583208;19;20067;-75
2024/01/23 16:12:19;;;;;;;12.50;3.33;;;6.40;99.90;;;;;;7601643;19;20014;-74
2024/01/23 16:14:52;;;;;;;13.38;2.70;;;6.40;99.90;;;;;;7597099;19;20026;-75
2024/01/23 16:17:24;;;;;;;13.38;2.72;;;6.40;99.90;;;;;;7566057;19;21095;-74
2024/01/23 16:19:57;;;;;;;7.82;2.38;;;6.40;99.90;;;;;;7555567;19;21649;-75
2024/01/23 16:22:29;;;;;;;11.65;2.70;;;6.40;99.90;;;;;;7531429;19;20692;-75
2024/01/23 16:25:01;;;;;;;17.20;3.38;;;6.40;99.90;;;;;;7499845;19;21075;-75
2024/01/23 16:27:34;;;;;;;13.13;3.70;;;6.30;99.90;;;;;;7523497;19;20010;-76
2024/01/23 16:30:08;;;;;;;17.05;4.45;;;6.30;99.90;;;;;;7525637;19;20278;-74
2024/01/23 16:32:41;;;;;;;14.55;3.10;;;6.30;99.90;;;;;;7581257;19;20453;-75
2024/01/23 16:35:16;;;;;;;13.55;2.47;;;6.30;99.90;;;;;;7090920;19;9999594;-76
2024/01/23 16:37:52;;;;;;;16.58;3.13;;;6.30;99.90;;;;;;7583946;19;20037;-78
2024/01/23 16:40:25;;;;;;;9.80;2.40;;;6.30;99.90;;;;;;7566067;19;20006;-77
2024/01/23 16:42:58;;;;;;;14.15;3.20;;;6.30;99.90;;;;;;7577469;19;20022;-76
2024/01/23 16:45:30;;;;;;;11.52;2.25;;;6.20;99.90;;;;;;7568488;19;20980;-75
2024/01/23 16:48:03;;;;;;;17.50;3.67;;;6.20;99.90;;;;;;7553293;19;20021;-80
2024/01/23 16:50:36;;;;;;;7.18;2.30;;;6.20;99.90;;;;;;7554951;19;20922;-76
2024/01/23 16:53:08;;;;;;;17.33;3.63;;;6.20;99.90;;;;;;7547611;19;20352;-77
2024/01/23 16:55:40;;;;;;;16.50;3.60;;;6.20;99.90;;;;;;7549232;19;20418;-76
2024/01/23 16:58:13;;;;;;;17.58;3.15;;;6.10;99.90;;;;;;7551984;19;20625;-78
2024/01/23 17:00:45;;;;;;;8.80;2.60;;;6.10;99.90;;;;;;7540894;19;20022;-78
2024/01/23 17:03:18;;;;;;;9.98;2.70;;;6.10;99.90;;;;;;7557563;19;20018;-79
2024/01/23 17:05:50;;;;;;;14.77;3.13;;;6.10;99.90;;;;;;7589185;19;20034;-77
2024/01/23 17:08:23;;;;;;;13.43;3.05;;;6.10;99.90;;;;;;7568636;19;20022;-77
2024/01/23 17:10:55;;;;;;;11.77;2.60;;;6.10;99.90;;;;;;7577890;19;20447;-77
2024/01/23 17:13:28;;;;;;;16.85;3.25;;;6.20;99.90;;;;;;7558762;19;20033;-73
2024/01/23 17:16:01;;;;;;;11.77;3.78;;;6.10;99.90;;;;;;7584056;19;20017;-77
2024/01/23 17:18:33;;;;;;;12.77;4.47;;;6.20;99.90;;;;;;7568252;19;20014;-77
2024/01/23 17:21:06;;;;;;;15.80;4.28;;;6.20;99.90;;;;;;7579400;19;20507;-77
2024/01/23 17:23:38;;;;;;;23.65;5.72;;;6.20;99.90;;;;;;7513198;19;20038;-75
2024/01/23 17:26:11;;;;;;;12.77;4.72;;;6.30;99.90;;;;;;7548044;19;20847;-75
2024/01/23 17:28:44;;;;;;;12.95;5.40;;;6.30;99.90;;;;;;7557392;19;20038;-73
2024/01/23 17:31:16;;;;;;;19.58;6.53;;;6.40;99.90;;;;;;7555563;19;20540;-75
2024/01/23 17:33:48;;;;;;;19.00;7.85;;;6.40;99.90;;;;;;7543053;19;20494;-75
2024/01/23 17:36:23;;;;;;;20.75;7.95;;;6.40;99.90;;;;;;7559171;19;20018;-75
2024/01/23 17:38:58;;;;;;;20.92;5.97;;;6.40;99.90;;;;;;7543964;19;20101;-76
2024/01/23 17:41:31;;;;;;;23.02;5.47;;;6.40;99.90;;;;;;7551497;19;20542;-78
2024/01/23 17:44:03;;;;;;;20.30;5.00;;;6.50;99.90;;;;;;7555422;19;20517;-77
2024/01/23 17:46:36;;;;;;;10.90;3.60;;;6.30;99.90;;;;;;7569200;19;20420;-76
2024/01/23 17:49:08;;;;;;;16.05;4.00;;;6.30;99.90;;;;;;7559131;19;20007;-77
2024/01/23 17:51:40;;;;;;;11.63;3.80;;;6.40;99.90;;;;;;7556842;19;20022;-75
2024/01/23 17:54:13;;;;;;;20.17;4.45;;;6.30;99.90;;;;;;7563263;19;20574;-78
2024/01/23 17:56:47;;;;;;;17.55;4.75;;;6.40;99.90;;;;;;7556615;19;20025;-77
2024/01/23 17:59:20;;;;;;;10.98;3.85;;;6.40;99.90;;;;;;7559552;19;20482;-77
2024/01/23 18:01:52;;;;;;;12.93;3.20;;;6.40;99.90;;;;;;7537387;19;20422;-81
2024/01/23 18:04:24;;;;;;;14.65;3.75;;;6.40;99.90;;;;;;7565327;19;20034;-81
2024/01/23 18:06:57;;;;;;;13.57;3.93;;;6.30;99.90;;;;;;7571479;19;21209;-82
2024/01/23 18:09:29;;;;;;;14.73;4.68;;;6.20;99.90;;;;;;7555576;19;20021;-82
2024/01/23 18:12:02;;;;;;;14.45;4.72;;;6.20;99.90;;;;;;7532482;19;20553;-82
2024/01/23 18:14:37;;;;;;;20.80;6.07;;;6.10;99.90;;;;;;7549066;19;20020;-81
2024/01/23 18:17:09;;;;;;;14.82;3.03;;;6.10;99.90;;;;;;7567794;19;20555;-81
2024/01/23 18:19:43;;;;;;;14.15;4.18;;;6.10;99.90;;;;;;7552885;19;20010;-81
2024/01/23 18:22:16;;;;;;;11.85;3.45;;;6.00;99.90;;;;;;7569250;19;20039;-82
2024/01/23 18:24:50;;;;;;;7.47;3.07;;;6.00;99.90;;;;;;7553683;19;20018;-80
2024/01/23 18:27:43;;;;;;;14.30;3.95;;;6.20;99.90;;;;;;7533292;19;20641;-83
2024/01/23 18:30:15;;;;;;;13.32;3.72;;;6.20;99.90;;;;;;7551531;19;20374;-83
2024/01/23 18:32:48;;;;;;;11.63;4.28;;;6.20;99.90;;;;;;7562804;19;20022;-83
2024/01/23 18:35:21;;;;;;;10.25;2.97;;;6.30;99.90;;;;;;7575202;19;20840;-80
2024/01/23 18:37:54;;;;;;;7.82;2.90;;;6.40;99.90;;;;;;7529195;19;20476;-81
2024/01/23 18:40:26;;;;;;;12.93;2.90;;;6.30;99.90;;;;;;7545468;19;20623;-81
2024/01/23 18:42:58;;;;;;;17.17;3.03;;;6.40;99.90;;;;;;7570367;19;20022;-83
2024/01/23 18:45:30;;;;;;;13.82;3.45;;;6.50;99.90;;;;;;7583359;19;20476;-81
2024/01/23 18:48:04;;;;;;;11.85;3.20;;;6.50;99.90;;;;;;7577712;19;20022;-82
2024/01/23 18:50:37;;;;;;;13.00;3.40;;;6.40;99.90;;;;;;7578742;19;20014;-81
2024/01/23 18:53:09;;;;;;;11.20;3.10;;;6.50;99.90;;;;;;7577903;19;20014;-81
2024/01/23 18:55:41;;;;;;;9.73;2.80;;;6.50;99.90;;;;;;7561708;19;20086;-79
2024/01/23 18:58:13;;;;;;;10.63;2.83;;;6.40;99.90;;;;;;7577473;19;20011;-81
2024/01/23 19:00:46;;;;;;;12.23;3.30;;;6.40;99.90;;;;;;6561994;19;9999622;-82
2024/01/23 19:03:20;;;;;;;14.35;3.58;;;6.40;99.90;;;;;;7583662;19;20389;-83
2024/01/23 19:05:54;;;;;;;14.90;3.97;;;6.40;99.90;;;;;;7569598;19;20063;-82
2024/01/23 19:08:27;;;;;;;12.25;4.72;;;6.40;99.90;;;;;;7579855;19;20022;-82
2024/01/23 19:10:59;;;;;;;17.42;5.45;;;6.40;99.90;;;;;;7571585;19;20015;-80
2024/01/23 19:13:32;;;;;;;31.45;8.85;;;6.50;99.90;;;;;;7569104;19;20014;-80
2024/01/23 19:16:06;;;;;;;45.42;13.40;;;6.50;99.90;;;;;;7583312;19;20512;-80
2024/01/23 19:18:39;;;;;;;35.05;11.10;;;6.50;99.90;;;;;;7575583;19;20006;-80
2024/01/23 19:21:11;;;;;;;47.63;14.25;;;6.50;99.90;;;;;;7579874;19;20018;-83
2024/01/23 19:23:44;;;;;;;30.95;10.68;;;6.60;99.90;;;;;;7582287;19;20029;-80
2024/01/23 19:26:17;;;;;;;14.52;3.92;;;6.50;99.90;;;;;;7588028;19;20551;-79
2024/01/23 19:28:50;;;;;;;17.70;4.38;;;6.50;99.90;;;;;;7573420;19;20482;-80
2024/01/23 19:31:22;;;;;;;11.07;3.38;;;6.60;99.90;;;;;;7585831;19;20630;-80
2024/01/23 19:33:58;;;;;;;10.77;3.92;;;6.60;99.90;;;;;;7604388;19;20029;-79
2024/01/23 19:36:44;;;;;;;15.07;5.55;;;6.60;99.90;;;;;;7576146;19;20245;-79
2024/01/23 19:39:16;;;;;;;11.20;4.35;;;6.60;99.90;;;;;;7580343;19;24982;-83
2024/01/23 19:41:49;;;;;;;33.20;6.03;;;6.70;99.90;;;;;;7564801;19;20014;-81
2024/01/23 19:44:21;;;;;;;13.52;5.72;;;6.70;99.90;;;;;;7582716;19;20488;-81
2024/01/23 19:46:55;;;;;;;13.70;5.30;;;6.70;99.90;;;;;;7571365;19;20038;-81
2024/01/23 19:49:34;;;;;;;17.70;4.03;;;6.70;99.90;;;;;;7585128;19;20017;-82
2024/01/23 19:52:08;;;;;;;8.45;3.03;;;6.70;99.90;;;;;;7578768;19;20052;-82
2024/01/23 19:54:40;;;;;;;13.47;3.30;;;6.70;99.90;;;;;;7565482;19;20014;-82
2024/01/23 19:57:14;;;;;;;12.27;2.87;;;6.70;99.90;;;;;;7576046;19;20466;-78
2024/01/23 19:59:46;;;;;;;9.15;2.67;;;6.70;99.90;;;;;;7582947;19;20010;-81
2024/01/23 20:02:19;;;;;;;9.18;3.20;;;6.80;99.90;;;;;;7567537;19;20435;-80
2024/01/23 20:04:51;;;;;;;10.35;2.70;;;6.70;99.90;;;;;;7571270;19;20548;-82
2024/01/23 20:07:24;;;;;;;15.00;3.80;;;6.90;99.90;;;;;;7575119;19;20748;-79
2024/01/23 20:09:56;;;;;;;12.93;2.88;;;6.90;99.90;;;;;;7577701;19;20017;-81
2024/01/23 20:12:28;;;;;;;7.22;2.75;;;6.80;99.90;;;;;;7577376;19;20034;-82
2024/01/23 20:15:01;;;;;;;11.20;2.55;;;6.80;99.90;;;;;;7571461;19;20370;-80
2024/01/23 20:17:35;;;;;;;;;;;6.80;99.90;;;;;;7573049;19;20025;-82
2024/01/23 20:20:08;;;;;;;11.27;2.70;;;6.80;99.90;;;;;;7570688;19;19932;-80
2024/01/23 20:22:40;;;;;;;8.70;2.70;;;6.90;99.90;;;;;;7577445;19;20018;-83
2024/01/23 20:25:13;;;;;;;5.87;2.33;;;6.80;99.90;;;;;;7569000;19;20527;-82
2024/01/23 20:27:48;;;;;;;14.63;3.33;;;6.80;99.90;;;;;;7583438;19;20279;-80
